Waupaca, Wisconsin
Current Conditions -  °F | °C
As of 1:35 PM on Wednesday 17 Dec 2014 (Local Time) from KPCZ Reporting Station
Scattered Clouds Scattered Clouds  
Wind Chill: 17°   Ceiling: Unl
Heat Index: 27°   Visibility: 10mi
Dew Point: 15°   Wind: 12mph
Humidity: 60%   Direction: 280°W
Pressure: 30.19"   Gusts: NA
Location:  44.36°N, 89.09°W
Report Text: KPCZ 171935Z AUTO 28010KT 10SM SCT026 M03/M09 A3019 RMK AO2 T10281095
Loading
Personal Weather Stations






























Interactive Weather Map New forecast layout! Learn more

10-Day Weather Forecast

Advertisements
Track Severe Weather on mobile